Pombal, Brazil
Current Conditions -  °F | °C
As of 1:00 PM on Friday 19 Dec 2014 (Local Time) from SBJU Reporting Station
Scattered Clouds Scattered Clouds  
Wind Chill: 93°   Ceiling: Unl
Heat Index: 97°   Visibility: 6mi
Dew Point: 68°   Wind: 3mph
Humidity: 44%   Direction: 130°SE
Pressure: 29.94"   Gusts: NA
Location:  6.77°S, 37.8°W
Report Text: SBJU 191600Z 13003KT 9999 SCT020 34/20 Q1014
Loading
Personal Weather Stations






























Interactive Weather Map New forecast layout! Learn more

10-Day Weather Forecast

Advertisements
Track Severe Weather on mobile